createdAt,value
2019-02-26T00:03:45.173Z,7.68
2019-02-26T00:09:40.174Z,5.85
2019-02-26T00:15:35.728Z,4.78
2019-02-26T00:21:31.041Z,7.65
2019-02-26T00:27:26.184Z,8.73
2019-02-26T00:33:22.142Z,6.36
2019-02-26T00:39:15.196Z,8.51
2019-02-26T00:45:10.228Z,7.63
2019-02-26T00:51:05.177Z,7.09
2019-02-26T00:57:01.566Z,7.58
2019-02-26T01:02:55.195Z,6.71
2019-02-26T01:08:50.182Z,6.34
2019-02-26T01:14:46.195Z,6.25
2019-02-26T01:20:40.199Z,4.58
2019-02-26T01:26:35.220Z,6.15
2019-02-26T01:32:30.267Z,6.95
2019-02-26T01:38:25.207Z,6.63
2019-02-26T01:44:20.224Z,6.76
2019-02-26T01:50:16.013Z,6.25
2019-02-26T01:56:10.231Z,5.51
2019-02-26T02:02:05.273Z,6.65
2019-02-26T02:08:00.239Z,6.12
2019-02-26T02:13:55.241Z,6.19
2019-02-26T02:19:50.245Z,5.67
2019-02-26T02:25:45.686Z,6.37
2019-02-26T02:31:40.317Z,5.51
2019-02-26T02:37:35.270Z,4.8
2019-02-26T02:43:30.253Z,5.62
2019-02-26T02:49:25.268Z,4.84
2019-02-26T02:55:20.250Z,3.69
2019-02-26T03:01:16.621Z,5.16
2019-02-26T03:07:10.265Z,3.81
2019-02-26T03:13:05.289Z,3.91
2019-02-26T03:19:00.272Z,4.87
2019-02-26T03:24:57.410Z,3.87
2019-02-26T03:30:50.323Z,6.09
2019-02-26T03:36:45.683Z,4.87
2019-02-26T03:42:41.439Z,4.09
2019-02-26T03:48:35.274Z,4.49
2019-02-26T03:54:30.295Z,5.21
2019-02-26T04:00:25.285Z,5.64
2019-02-26T04:06:20.327Z,5.21
2019-02-26T04:12:16.129Z,4.69
2019-02-26T04:18:10.306Z,2.75
2019-02-26T04:24:05.838Z,3.87
2019-02-26T04:30:00.333Z,3.95
2019-02-26T04:35:55.550Z,3.64
2019-02-26T04:41:50.348Z,3.36
2019-02-26T04:47:46.570Z,4.19
2019-02-26T04:53:40.326Z,3.25
2019-02-26T04:59:37.895Z,4.2
2019-02-26T05:05:31.881Z,3.77
2019-02-26T05:11:31.321Z,3.87
2019-02-26T05:17:21.780Z,3.02
2019-02-26T05:23:15.384Z,3.29
2019-02-26T05:29:10.349Z,3.13
2019-02-26T05:35:05.332Z,2.75
2019-02-26T05:41:00.356Z,3.07
2019-02-26T05:46:56.584Z,3.52
2019-02-26T05:52:55.071Z,3.27
2019-02-26T05:58:46.936Z,3
2019-02-26T06:04:40.932Z,3.36
2019-02-26T06:10:35.372Z,3.58
2019-02-26T06:16:31.447Z,2.8
2019-02-26T06:22:27.069Z,3.55
2019-02-26T06:28:20.551Z,3.87
2019-02-26T06:34:16.304Z,4.03
2019-02-26T06:40:10.376Z,4.34
2019-02-26T06:46:08.460Z,5.27
2019-02-26T06:52:00.412Z,9.17
2019-02-26T06:57:55.411Z,11.07
2019-02-26T07:03:50.389Z,7.22
2019-02-26T07:09:45.375Z,8.7
2019-02-26T07:15:40.409Z,8.4
2019-02-26T07:21:35.402Z,12.36
2019-02-26T07:27:31.831Z,12.72
2019-02-26T07:33:27.190Z,11.54
2019-02-26T07:39:22.546Z,12.82
2019-02-26T07:45:19.477Z,15.48
2019-02-26T07:51:10.418Z,18.71
2019-02-26T07:57:05.406Z,16.7
2019-02-26T08:03:02.040Z,19.99
2019-02-26T08:08:55.428Z,18.18
2019-02-26T08:14:50.422Z,18.11
2019-02-26T08:20:45.428Z,15.79
2019-02-26T08:26:41.230Z,14.42
2019-02-26T08:32:35.446Z,10.04
2019-02-26T08:38:30.435Z,9.32
2019-02-26T08:44:25.508Z,10.3
2019-02-26T08:50:20.482Z,9.4
2019-02-26T08:56:15.447Z,8.96
2019-02-26T09:02:10.531Z,12.21
2019-02-26T09:08:05.916Z,15.86
2019-02-26T09:14:02.159Z,13.67
2019-02-26T09:20:04.190Z,12.3
2019-02-26T09:25:54.058Z,15.34
2019-02-26T09:31:45.464Z,11.42
2019-02-26T09:37:40.479Z,11.84
2019-02-26T09:43:36.140Z,10.02
2019-02-26T09:49:32.804Z,10.12
2019-02-26T09:55:25.481Z,8.43
2019-02-26T10:01:20.517Z,9.02
2019-02-26T10:07:15.489Z,9.68
2019-02-26T10:13:10.496Z,9.57
2019-02-26T10:19:05.533Z,7.15
2019-02-26T10:25:00.533Z,5.33
2019-02-26T10:30:56.873Z,2.18
2019-02-26T10:36:51.755Z,1.85
2019-02-26T10:42:46.193Z,1.14
2019-02-26T10:48:41.475Z,1.26
2019-02-26T10:54:37.402Z,2.36
2019-02-26T11:00:33.840Z,1.65
2019-02-26T11:06:25.522Z,1.33
2019-02-26T11:12:22.691Z,1.5
2019-02-26T11:18:17.887Z,1.61
2019-02-26T11:24:11.228Z,1.87
2019-02-26T11:30:05.544Z,2.39
2019-02-26T11:36:00.547Z,1.49
2019-02-26T11:41:56.732Z,4.09
2019-02-26T11:47:50.542Z,1.94
2019-02-26T11:53:45.743Z,1.5
2019-02-26T11:59:42.735Z,1.87
2019-02-26T12:05:38.311Z,2.07
2019-02-26T12:11:30.567Z,1.61
2019-02-26T12:17:25.593Z,1.28
2019-02-26T12:23:22.695Z,1.31
2019-02-26T12:29:16.081Z,1.43
2019-02-26T12:35:12.023Z,2.57
2019-02-26T12:41:08.267Z,4.95
2019-02-26T12:47:00.610Z,7.23
2019-02-26T12:52:57.012Z,10.01
2019-02-26T12:58:51.887Z,3.3
2019-02-26T13:04:47.919Z,2.19
2019-02-26T13:10:42.274Z,1.52
2019-02-26T13:16:35.614Z,1.4
2019-02-26T13:22:30.588Z,1.52
2019-02-26T13:28:29.473Z,3.25
2019-02-26T13:34:20.639Z,2.33
2019-02-26T13:40:15.657Z,2.01
2019-02-26T13:46:10.620Z,1.37
2019-02-26T13:52:05.603Z,1.41
2019-02-26T13:58:00.637Z,1.12
2019-02-26T14:03:55.615Z,2.2
2019-02-26T14:09:50.620Z,4.69
2019-02-26T14:15:45.606Z,2.85
2019-02-26T14:21:40.636Z,2.15
2019-02-26T14:27:35.627Z,1.82
2019-02-26T14:33:30.639Z,1.9
2019-02-26T14:39:25.676Z,2.2
2019-02-26T14:45:20.676Z,1.9
2019-02-26T14:51:15.841Z,1.19
2019-02-26T14:57:10.651Z,1.63
2019-02-26T15:03:05.655Z,1.26
2019-02-26T15:09:00.649Z,1.9
2019-02-26T15:14:55.662Z,1.03
2019-02-26T15:20:50.675Z,1.11
2019-02-26T15:26:45.666Z,1.97
2019-02-26T15:32:40.650Z,3.55
2019-02-26T15:38:35.675Z,1.37
2019-02-26T15:44:30.691Z,4.38
2019-02-26T15:50:25.681Z,4.74
2019-02-26T15:56:20.695Z,4.8
2019-02-26T16:02:15.690Z,3.53
2019-02-26T16:08:10.676Z,2.49
2019-02-26T16:14:05.671Z,3.03
2019-02-26T16:20:00.686Z,2.87
2019-02-26T16:25:55.717Z,3.56
2019-02-26T16:31:50.718Z,7.2
2019-02-26T16:37:45.769Z,6.9
2019-02-26T16:43:40.701Z,5
2019-02-26T16:49:35.720Z,6.51
2019-02-26T16:55:30.716Z,6.01
2019-02-26T17:01:25.712Z,4.55
2019-02-26T17:07:20.724Z,5.59
2019-02-26T17:13:15.713Z,4.63
2019-02-26T17:19:10.746Z,7.53
2019-02-26T17:25:05.723Z,6.43
2019-02-26T17:31:00.793Z,4.57
2019-02-26T17:36:55.764Z,7.76
2019-02-26T17:42:51.129Z,12
2019-02-26T17:48:45.750Z,9.34
2019-02-26T17:54:40.724Z,9.2
2019-02-26T18:00:35.737Z,7.4
2019-02-26T18:06:30.802Z,9.46
2019-02-26T18:12:25.770Z,8.37
2019-02-26T18:18:20.755Z,6.43
2019-02-26T18:24:16.722Z,6.76
2019-02-26T18:30:10.807Z,5.3
2019-02-26T18:36:05.779Z,6.11
2019-02-26T18:42:00.773Z,4.99
2019-02-26T18:47:55.767Z,5.1
2019-02-26T18:53:50.764Z,15.33
2019-02-26T18:59:45.771Z,16.4
2019-02-26T19:05:40.775Z,18
2019-02-26T19:11:35.782Z,12.89
2019-02-26T19:17:30.795Z,11.44
2019-02-26T19:23:25.802Z,10.57
2019-02-26T19:29:20.782Z,14.95
2019-02-26T19:35:15.787Z,8.31
2019-02-26T19:41:12.563Z,6.37
2019-02-26T19:47:05.848Z,9.5
2019-02-26T19:53:02.433Z,4.86
2019-02-26T19:58:55.822Z,5.19
2019-02-26T20:04:50.811Z,7.55
2019-02-26T20:10:48.684Z,7.13
2019-02-26T20:16:40.811Z,5.25
2019-02-26T20:22:35.852Z,7.76
2019-02-26T20:28:30.850Z,7.4
2019-02-26T20:34:25.822Z,6.77
2019-02-26T20:40:20.832Z,7.4
2019-02-26T20:46:15.892Z,6.56
2019-02-26T20:52:10.849Z,12.1
2019-02-26T20:58:05.886Z,22.57
2019-02-26T21:04:00.874Z,9.42
2019-02-26T21:10:03.442Z,12
2019-02-26T21:15:50.882Z,8.06
2019-02-26T21:21:48.811Z,11.78
2019-02-26T21:27:40.845Z,10.93
2019-02-26T21:33:35.856Z,9.66
2019-02-26T21:39:30.867Z,10.7
2019-02-26T21:45:25.846Z,9.08
2019-02-26T21:51:20.875Z,8.74
2019-02-26T21:57:15.885Z,6.75
2019-02-26T22:03:10.881Z,6.1
2019-02-26T22:09:05.882Z,6.37
2019-02-26T22:15:00.869Z,5.94
2019-02-26T22:20:55.886Z,5.83
2019-02-26T22:26:50.987Z,5.59
2019-02-26T22:32:45.900Z,6.01
2019-02-26T22:38:40.908Z,6.13
2019-02-26T22:44:35.928Z,6.25
2019-02-26T22:50:30.896Z,6.13
2019-02-26T22:56:25.917Z,4.94
2019-02-26T23:02:20.903Z,5.27
2019-02-26T23:08:15.907Z,4.86
2019-02-26T23:14:10.922Z,5.1
2019-02-26T23:20:07.535Z,6.34
2019-02-26T23:26:00.940Z,7.18
2019-02-26T23:31:55.957Z,6.85
2019-02-26T23:37:50.949Z,7.5
2019-02-26T23:43:46.068Z,7.57
2019-02-26T23:49:40.924Z,6.35
2019-02-26T23:55:35.977Z,6.19
